createdAt,value
2023-02-23T00:01:23.555Z,96771.53
2023-02-23T00:03:50.889Z,96771.69
2023-02-23T00:06:18.690Z,96762.41
2023-02-23T00:08:47.877Z,96766.13
2023-02-23T00:11:16.275Z,96768.13
2023-02-23T00:13:46.189Z,96768.53
2023-02-23T00:16:15.317Z,96773.22
2023-02-23T00:18:53.721Z,96772.63
2023-02-23T00:21:24.445Z,96773.88
2023-02-23T00:24:01.761Z,96768.78
2023-02-23T00:26:31.612Z,96773.41
2023-02-23T00:28:58.610Z,96775.25
2023-02-23T00:31:27.158Z,96776.34
2023-02-23T00:33:55.988Z,96774.94
2023-02-23T00:36:25.683Z,96782.25
2023-02-23T00:38:54.231Z,96779.09
2023-02-23T00:41:25.547Z,96776.56
2023-02-23T00:43:54.875Z,96771.38
2023-02-23T00:46:23.558Z,96773.28
2023-02-23T00:48:51.022Z,96769.06
2023-02-23T00:51:19.069Z,96776.94
2023-02-23T00:53:45.934Z,96774.66
2023-02-23T00:56:15.153Z,96777.41
2023-02-23T00:58:42.624Z,96782.53
2023-02-23T01:01:10.849Z,96778.94
2023-02-23T01:03:38.450Z,96782.47
2023-02-23T01:06:07.189Z,96774.97
2023-02-23T01:08:36.206Z,96773.56
2023-02-23T01:11:09.284Z,96774.63
2023-02-23T01:13:36.980Z,96773.09
2023-02-23T01:16:13.781Z,96775.78
2023-02-23T01:18:44.472Z,96774.91
2023-02-23T01:21:32.536Z,96775.84
2023-02-23T01:23:59.914Z,96778.59
2023-02-23T01:26:30.344Z,96773.53
2023-02-23T01:29:00.557Z,96778.88
2023-02-23T01:31:29.303Z,96771.06
2023-02-23T01:33:57.485Z,96781.28
2023-02-23T01:36:25.595Z,96776.91
2023-02-23T01:38:56.928Z,96772.75
2023-02-23T01:41:24.787Z,96772.00
2023-02-23T01:44:06.328Z,96774.63
2023-02-23T01:46:35.050Z,96776.53
2023-02-23T01:49:03.935Z,96771.47
2023-02-23T01:51:34.625Z,96778.66
2023-02-23T01:54:14.619Z,96783.34
2023-02-23T01:56:45.341Z,96774.06
2023-02-23T01:59:15.208Z,96774.94
2023-02-23T02:01:42.742Z,96773.94
2023-02-23T02:04:16.623Z,96773.00
2023-02-23T02:06:46.108Z,96769.72
2023-02-23T02:09:17.503Z,96776.84
2023-02-23T02:11:46.473Z,96769.09
2023-02-23T02:14:13.209Z,96762.34
2023-02-23T02:16:45.858Z,96760.50
2023-02-23T02:19:16.772Z,96764.97
2023-02-23T02:22:14.992Z,96761.50
2023-02-23T02:25:03.597Z,96767.59
2023-02-23T02:27:51.916Z,96764.31
2023-02-23T02:30:41.681Z,96761.16
2023-02-23T02:33:16.825Z,96760.53
2023-02-23T02:36:02.168Z,96760.56
2023-02-23T02:38:31.619Z,96758.91
2023-02-23T02:41:33.050Z,96757.28
2023-02-23T02:44:08.422Z,96754.75
2023-02-23T02:46:48.123Z,96753.81
2023-02-23T02:49:46.462Z,96760.81
2023-02-23T02:52:30.210Z,96746.25
2023-02-23T02:55:03.501Z,96755.75
2023-02-23T02:57:33.062Z,96753.19
2023-02-23T03:00:18.144Z,96753.25
2023-02-23T03:03:04.119Z,96758.47
2023-02-23T03:06:18.325Z,96761.78
2023-02-23T03:09:20.412Z,96760.09
2023-02-23T03:12:37.102Z,96758.41
2023-02-23T03:15:36.497Z,96764.75
2023-02-23T03:18:57.313Z,96765.09
2023-02-23T03:21:53.676Z,96760.78
2023-02-23T03:24:47.583Z,96767.75
2023-02-23T03:27:47.428Z,96767.13
2023-02-23T03:30:41.486Z,96782.81
2023-02-23T03:33:44.748Z,96780.34
2023-02-23T03:36:37.657Z,96778.84
2023-02-23T03:39:25.986Z,96785.03
2023-02-23T03:42:12.894Z,96778.19
2023-02-23T03:45:01.660Z,96783.56
2023-02-23T03:47:50.158Z,96781.53
2023-02-23T03:50:51.009Z,96785.09
2023-02-23T03:53:41.268Z,96789.66
2023-02-23T03:56:28.773Z,96780.22
2023-02-23T03:59:19.230Z,96784.66
2023-02-23T04:02:07.174Z,96780.31
2023-02-23T04:04:53.146Z,96780.44
2023-02-23T04:07:39.031Z,96784.75
2023-02-23T04:10:26.424Z,96787.28
2023-02-23T04:13:17.139Z,96779.53
2023-02-23T04:16:09.199Z,96787.28
2023-02-23T04:18:37.949Z,96785.31
2023-02-23T04:21:06.321Z,96780.88
2023-02-23T04:23:33.846Z,96787.00
2023-02-23T04:26:00.392Z,96790.44
2023-02-23T04:28:29.033Z,96786.78
2023-02-23T04:30:55.678Z,96798.97
2023-02-23T04:33:24.962Z,96790.38
2023-02-23T04:35:55.680Z,96788.75
2023-02-23T04:38:23.441Z,96789.81
2023-02-23T04:40:50.063Z,96791.75
2023-02-23T04:43:16.630Z,96785.66
2023-02-23T04:45:44.172Z,96797.78
2023-02-23T04:48:10.746Z,96802.22
2023-02-23T04:50:37.347Z,96793.72
2023-02-23T04:53:04.083Z,96795.47
2023-02-23T04:55:30.567Z,96803.13
2023-02-23T04:58:00.119Z,96804.09
2023-02-23T05:00:29.434Z,96805.00
2023-02-23T05:02:56.699Z,96801.59
2023-02-23T05:05:23.265Z,96799.13
2023-02-23T05:07:49.833Z,96799.38
2023-02-23T05:10:16.444Z,96795.16
2023-02-23T05:12:43.003Z,96796.91
2023-02-23T05:15:11.073Z,96793.72
2023-02-23T05:17:42.098Z,96803.16
2023-02-23T05:20:13.044Z,96799.03
2023-02-23T05:22:40.076Z,96798.38
2023-02-23T05:25:09.021Z,96803.78
2023-02-23T05:27:36.805Z,96799.56
2023-02-23T05:30:04.430Z,96799.75
2023-02-23T05:32:30.973Z,96805.16
2023-02-23T05:34:57.505Z,96805.25
2023-02-23T05:37:24.015Z,96808.72
2023-02-23T05:39:50.592Z,96805.97
2023-02-23T05:42:17.052Z,96809.25
2023-02-23T05:44:43.545Z,96809.25
2023-02-23T05:47:10.840Z,96800.72
2023-02-23T05:49:37.567Z,96815.41
2023-02-23T05:52:04.346Z,96811.13
2023-02-23T05:54:31.500Z,96817.16
2023-02-23T05:56:59.363Z,96818.81
2023-02-23T05:59:27.128Z,96819.31
2023-02-23T06:01:53.659Z,96822.44
2023-02-23T06:04:21.052Z,96821.41
2023-02-23T06:06:47.595Z,96820.31
2023-02-23T06:09:14.080Z,96828.63
2023-02-23T06:11:40.691Z,96821.47
2023-02-23T06:14:07.228Z,96818.75
2023-02-23T06:16:33.821Z,96830.78
2023-02-23T06:19:00.481Z,96831.34
2023-02-23T06:21:26.921Z,96834.47
2023-02-23T06:23:53.631Z,96833.94
2023-02-23T06:26:20.599Z,96839.66
2023-02-23T06:28:47.178Z,96840.22
2023-02-23T06:31:13.701Z,96850.63
2023-02-23T06:33:40.209Z,96850.47
2023-02-23T06:36:07.017Z,96845.81
2023-02-23T06:38:33.547Z,96850.53
2023-02-23T06:41:00.016Z,96853.13
2023-02-23T06:43:26.589Z,96856.16
2023-02-23T06:45:53.133Z,96857.28
2023-02-23T06:48:19.668Z,96860.28
2023-02-23T06:50:46.129Z,96859.38
2023-02-23T06:53:12.685Z,96857.50
2023-02-23T06:55:39.254Z,96864.16
2023-02-23T06:58:07.131Z,96870.84
2023-02-23T07:00:33.747Z,96867.94
2023-02-23T07:03:00.248Z,96870.28
2023-02-23T07:05:27.304Z,96871.88
2023-02-23T07:07:53.808Z,96866.31
2023-02-23T07:10:20.430Z,96862.56
2023-02-23T07:12:47.102Z,96868.31
2023-02-23T07:15:14.659Z,96858.66
2023-02-23T07:17:41.159Z,96866.94
2023-02-23T07:20:08.029Z,96864.63
2023-02-23T07:22:34.688Z,96864.13
2023-02-23T07:25:01.266Z,96863.31
2023-02-23T07:27:28.257Z,96868.59
2023-02-23T07:29:54.829Z,96880.34
2023-02-23T07:32:21.466Z,96874.56
2023-02-23T07:34:48.109Z,96873.94
2023-02-23T07:37:14.827Z,96876.47
2023-02-23T07:39:41.345Z,96880.53
2023-02-23T07:42:07.904Z,96876.41
2023-02-23T07:44:34.414Z,96883.06
2023-02-23T07:47:00.972Z,96874.69
2023-02-23T07:49:27.492Z,96880.75
2023-02-23T07:51:53.978Z,96882.63
2023-02-23T07:54:21.927Z,96885.03
2023-02-23T07:56:48.562Z,96883.09
2023-02-23T07:59:15.384Z,96884.59
2023-02-23T08:01:41.888Z,96878.38
2023-02-23T08:04:08.605Z,96889.03
2023-02-23T08:06:35.264Z,96889.34
2023-02-23T08:09:03.954Z,96884.47
2023-02-23T08:11:30.605Z,96879.53
2023-02-23T08:14:00.171Z,96882.19
2023-02-23T08:16:31.554Z,96887.81
2023-02-23T08:18:59.433Z,96886.91
2023-02-23T08:21:27.699Z,96887.78
2023-02-23T08:23:54.198Z,96889.31
2023-02-23T08:26:20.739Z,96884.06
2023-02-23T08:28:47.444Z,96892.03
2023-02-23T08:31:16.279Z,96884.97
2023-02-23T08:33:42.955Z,96885.41
2023-02-23T08:36:09.886Z,96879.34
2023-02-23T08:38:39.529Z,96885.22
2023-02-23T08:41:06.471Z,96892.50
2023-02-23T08:43:33.050Z,96882.84
2023-02-23T08:45:59.639Z,96889.03
2023-02-23T08:48:26.498Z,96886.28
2023-02-23T08:50:56.979Z,96888.66
2023-02-23T08:53:25.752Z,96887.81
2023-02-23T08:55:56.992Z,96899.13
2023-02-23T08:58:23.597Z,96892.25
2023-02-23T09:00:50.408Z,96892.72
2023-02-23T09:03:17.083Z,96890.63
2023-02-23T09:05:44.227Z,96886.13
2023-02-23T09:08:12.317Z,96882.19
2023-02-23T09:10:38.964Z,96882.22
2023-02-23T09:13:05.940Z,96879.28
2023-02-23T09:15:32.476Z,96875.56
2023-02-23T09:18:02.552Z,96873.69
2023-02-23T09:20:28.938Z,96873.94
2023-02-23T09:22:55.484Z,96868.16
2023-02-23T09:25:23.095Z,96865.06
2023-02-23T09:27:51.892Z,96866.91
2023-02-23T09:30:20.724Z,96862.19
2023-02-23T09:32:48.754Z,96868.56
2023-02-23T09:35:17.865Z,96860.38
2023-02-23T09:37:49.280Z,96860.88
2023-02-23T09:40:26.052Z,96860.34
2023-02-23T09:43:06.354Z,96857.06
2023-02-23T09:45:39.633Z,96862.34
2023-02-23T09:48:16.608Z,96861.44
2023-02-23T09:50:47.781Z,96859.47
2023-02-23T09:53:39.174Z,96873.63
2023-02-23T09:56:13.630Z,96867.97
2023-02-23T09:58:40.533Z,96867.38
2023-02-23T10:01:22.651Z,96874.63
2023-02-23T10:04:07.708Z,96865.88
2023-02-23T10:06:34.768Z,96874.28
2023-02-23T10:09:30.715Z,96868.72
2023-02-23T10:11:59.871Z,96873.13
2023-02-23T10:15:06.643Z,96874.97
2023-02-23T10:18:16.437Z,96863.69
2023-02-23T10:20:55.014Z,96868.44
2023-02-23T10:23:34.335Z,96855.81
2023-02-23T10:26:03.667Z,96864.13
2023-02-23T10:28:35.582Z,96865.09
2023-02-23T10:31:14.050Z,96863.63
2023-02-23T10:33:42.257Z,96853.03
2023-02-23T10:36:26.391Z,96846.91
2023-02-23T10:38:52.935Z,96842.69
2023-02-23T10:41:19.636Z,96836.94
2023-02-23T10:43:47.874Z,96845.41
2023-02-23T10:46:29.538Z,96837.69
2023-02-23T10:48:57.054Z,96838.97
2023-02-23T10:51:30.109Z,96830.84
2023-02-23T10:53:56.625Z,96821.78
2023-02-23T10:56:24.122Z,96816.09
2023-02-23T10:58:56.570Z,96819.31
2023-02-23T11:02:00.966Z,96822.16
2023-02-23T11:04:32.186Z,96823.00
2023-02-23T11:07:17.664Z,96821.78
2023-02-23T11:09:47.582Z,96819.19
2023-02-23T11:12:41.764Z,96817.13
2023-02-23T11:15:49.458Z,96816.44
2023-02-23T11:20:53.413Z,96777.41
2023-02-23T11:23:29.576Z,96777.59
2023-02-23T11:26:02.480Z,96775.44
2023-02-23T11:28:32.362Z,96772.75
2023-02-23T11:31:15.887Z,96776.47
2023-02-23T11:33:42.619Z,96771.22
2023-02-23T11:36:30.628Z,96774.91
2023-02-23T11:39:06.371Z,96773.34
2023-02-23T11:41:35.382Z,96773.16
2023-02-23T11:44:06.108Z,96776.59
2023-02-23T11:46:37.747Z,96768.09
2023-02-23T11:49:14.741Z,96773.44
2023-02-23T11:51:46.664Z,96769.56
2023-02-23T11:54:29.623Z,96777.53
2023-02-23T11:56:57.977Z,96766.31
2023-02-23T11:59:35.600Z,96772.47
2023-02-23T12:02:25.025Z,96768.16
2023-02-23T12:05:20.850Z,96773.50
2023-02-23T12:07:56.348Z,96768.22
2023-02-23T12:10:32.131Z,96760.13
2023-02-23T12:13:24.945Z,96764.03
2023-02-23T12:16:03.907Z,96768.22
2023-02-23T12:18:40.434Z,96769.06
2023-02-23T12:21:26.370Z,96760.81
2023-02-23T12:24:03.826Z,96758.69
2023-02-23T12:26:33.983Z,96759.06
2023-02-23T12:29:09.687Z,96754.16
2023-02-23T12:32:12.852Z,96760.72
2023-02-23T12:34:48.133Z,96755.69
2023-02-23T12:37:28.170Z,96756.25
2023-02-23T12:40:17.621Z,96750.28
2023-02-23T12:42:51.496Z,96754.03
2023-02-23T12:45:25.809Z,96744.84
2023-02-23T12:47:55.326Z,96748.13
2023-02-23T12:50:24.905Z,96739.53
2023-02-23T12:52:57.641Z,96732.31
2023-02-23T12:55:50.298Z,96739.19
2023-02-23T12:58:37.775Z,96727.97
2023-02-23T13:01:12.740Z,96734.53
2023-02-23T13:03:55.192Z,96733.00
2023-02-23T13:06:59.519Z,96732.31
2023-02-23T13:09:41.053Z,96728.25
2023-02-23T13:12:10.462Z,96732.56
2023-02-23T13:14:43.624Z,96729.34
2023-02-23T13:17:22.072Z,96723.09
2023-02-23T13:19:55.528Z,96722.00
2023-02-23T13:22:28.084Z,96730.03
2023-02-23T13:24:59.465Z,96735.91
2023-02-23T13:27:42.189Z,96730.59
2023-02-23T13:30:12.573Z,96734.13
2023-02-23T13:32:39.504Z,96733.41
2023-02-23T13:35:10.355Z,96732.28
2023-02-23T13:37:52.883Z,96731.22
2023-02-23T13:40:22.282Z,96729.50
2023-02-23T13:42:58.711Z,96732.13
2023-02-23T13:45:28.150Z,96723.97
2023-02-23T13:48:13.500Z,96732.78
2023-02-23T13:51:01.599Z,96719.25
2023-02-23T13:53:41.921Z,96722.16
2023-02-23T13:56:22.739Z,96718.53
2023-02-23T13:58:54.116Z,96717.81
2023-02-23T14:01:23.410Z,96724.63
2023-02-23T14:03:56.145Z,96723.69
2023-02-23T14:06:27.354Z,96712.69
2023-02-23T14:09:22.063Z,96717.97
2023-02-23T14:11:56.283Z,96714.88
2023-02-23T14:14:32.129Z,96707.78
2023-02-23T14:17:28.010Z,96715.63
2023-02-23T14:20:29.564Z,96713.41
2023-02-23T14:23:20.435Z,96713.09
2023-02-23T14:25:48.780Z,96717.03
2023-02-23T14:28:31.145Z,96714.69
2023-02-23T14:31:11.136Z,96719.00
2023-02-23T14:33:45.244Z,96715.50
2023-02-23T14:36:23.664Z,96718.38
2023-02-23T14:38:53.158Z,96714.31
2023-02-23T14:41:41.702Z,96715.13
2023-02-23T14:44:28.446Z,96711.78
2023-02-23T14:47:13.067Z,96713.06
2023-02-23T14:49:44.766Z,96711.91
2023-02-23T14:52:24.507Z,96707.94
2023-02-23T14:54:51.956Z,96711.88
2023-02-23T14:57:24.165Z,96707.69
2023-02-23T15:00:02.267Z,96707.53
2023-02-23T15:02:30.380Z,96708.63
2023-02-23T15:04:57.274Z,96712.41
2023-02-23T15:07:32.908Z,96712.13
2023-02-23T15:10:01.368Z,96716.31
2023-02-23T15:12:36.388Z,96704.47
2023-02-23T15:15:06.066Z,96702.66
2023-02-23T15:17:33.992Z,96704.00
2023-02-23T15:22:55.240Z,96704.13
2023-02-23T15:25:27.403Z,96704.41
2023-02-23T15:27:55.981Z,96697.81
2023-02-23T15:30:32.626Z,96693.19
2023-02-23T15:33:06.136Z,96701.66
2023-02-23T15:35:42.346Z,96702.59
2023-02-23T15:38:17.756Z,96695.44
2023-02-23T15:40:56.120Z,96704.19
2023-02-23T15:43:23.556Z,96700.41
2023-02-23T15:45:52.631Z,96692.03
2023-02-23T15:48:24.586Z,96693.38
2023-02-23T15:50:54.934Z,96698.94
2023-02-23T15:53:21.383Z,96695.97
2023-02-23T15:55:48.518Z,96696.50
2023-02-23T15:58:20.877Z,96689.09
2023-02-23T16:00:55.225Z,96699.22
2023-02-23T16:03:24.853Z,96689.16
2023-02-23T16:06:06.706Z,96690.50
2023-02-23T16:08:36.766Z,96697.69
2023-02-23T16:11:14.773Z,96690.16
2023-02-23T16:13:45.939Z,96688.72
2023-02-23T16:16:20.529Z,96694.53
2023-02-23T16:18:53.404Z,96694.44
2023-02-23T16:21:25.394Z,96691.25
2023-02-23T16:23:54.497Z,96695.34
2023-02-23T16:26:26.848Z,96692.75
2023-02-23T16:28:57.193Z,96693.63
2023-02-23T16:31:42.156Z,96693.53
2023-02-23T16:34:25.170Z,96688.41
2023-02-23T16:36:57.712Z,96682.56
2023-02-23T16:39:29.304Z,96681.88
2023-02-23T16:41:58.603Z,96691.47
2023-02-23T16:44:34.292Z,96692.09
2023-02-23T16:47:08.310Z,96701.44
2023-02-23T16:49:34.837Z,96702.41
2023-02-23T16:52:01.542Z,96701.78
2023-02-23T16:54:28.135Z,96704.91
2023-02-23T16:56:55.468Z,96705.47
2023-02-23T16:59:24.006Z,96710.16
2023-02-23T17:01:53.147Z,96713.13
2023-02-23T17:04:20.845Z,96711.69
2023-02-23T17:06:57.694Z,96705.09
2023-02-23T17:09:25.289Z,96715.28
2023-02-23T17:11:51.793Z,96714.66
2023-02-23T17:14:27.363Z,96712.25
2023-02-23T17:16:54.093Z,96710.91
2023-02-23T17:19:23.579Z,96706.84
2023-02-23T17:21:51.168Z,96711.63
2023-02-23T17:24:17.662Z,96715.44
2023-02-23T17:26:44.191Z,96717.44
2023-02-23T17:29:10.693Z,96718.53
2023-02-23T17:31:38.517Z,96720.56
2023-02-23T17:34:05.887Z,96721.84
2023-02-23T17:36:32.574Z,96726.50
2023-02-23T17:38:59.733Z,96726.00
2023-02-23T17:41:27.242Z,96721.19
2023-02-23T17:43:54.134Z,96726.91
2023-02-23T17:46:21.034Z,96733.13
2023-02-23T17:48:47.546Z,96735.38
2023-02-23T17:51:16.823Z,96738.56
2023-02-23T17:53:43.643Z,96729.81
2023-02-23T17:56:10.890Z,96735.81
2023-02-23T17:58:38.409Z,96734.03
2023-02-23T18:01:07.052Z,96738.34
2023-02-23T18:03:35.954Z,96737.72
2023-02-23T18:06:04.817Z,96735.09
2023-02-23T18:08:31.538Z,96733.31
2023-02-23T18:10:58.459Z,96730.69
2023-02-23T18:13:26.973Z,96735.81
2023-02-23T18:16:03.150Z,96731.50
2023-02-23T18:18:29.968Z,96729.00
2023-02-23T18:20:58.709Z,96729.94
2023-02-23T18:23:28.852Z,96736.06
2023-02-23T18:25:55.575Z,96729.22
2023-02-23T18:28:22.191Z,96719.78
2023-02-23T18:30:48.661Z,96717.22
2023-02-23T18:33:15.861Z,96720.81
2023-02-23T18:35:45.473Z,96717.81
2023-02-23T18:38:14.050Z,96719.94
2023-02-23T18:40:41.165Z,96715.72
2023-02-23T18:43:08.230Z,96712.34
2023-02-23T18:45:35.011Z,96715.22
2023-02-23T18:48:01.599Z,96709.22
2023-02-23T18:50:28.433Z,96714.59
2023-02-23T18:52:56.448Z,96709.44
2023-02-23T18:55:23.868Z,96709.75
2023-02-23T18:57:52.697Z,96709.47
2023-02-23T19:00:20.466Z,96706.34
2023-02-23T19:02:47.773Z,96711.00
2023-02-23T19:05:16.894Z,96714.03
2023-02-23T19:07:44.030Z,96715.31
2023-02-23T19:10:13.096Z,96711.44
2023-02-23T19:12:39.997Z,96711.13
2023-02-23T19:15:08.061Z,96714.94
2023-02-23T19:17:35.517Z,96715.19
2023-02-23T19:20:02.493Z,96718.88
2023-02-23T19:22:29.822Z,96719.09
2023-02-23T19:24:56.347Z,96720.16
2023-02-23T19:27:23.143Z,96727.41
2023-02-23T19:29:49.613Z,96723.19
2023-02-23T19:32:19.202Z,96725.94
2023-02-23T19:34:48.467Z,96730.47
2023-02-23T19:37:14.976Z,96728.78
2023-02-23T19:39:41.592Z,96728.56
2023-02-23T19:42:09.133Z,96730.25
2023-02-23T19:44:35.825Z,96729.38
2023-02-23T19:47:02.376Z,96731.19
2023-02-23T19:49:28.840Z,96726.97
2023-02-23T19:51:55.445Z,96734.56
2023-02-23T19:54:21.910Z,96725.31
2023-02-23T19:56:49.955Z,96720.69
2023-02-23T19:59:16.567Z,96722.03
2023-02-23T20:01:45.018Z,96720.78
2023-02-23T20:04:11.935Z,96726.63
2023-02-23T20:06:46.940Z,96726.59
2023-02-23T20:09:14.322Z,96728.91
2023-02-23T20:11:42.513Z,96718.16
2023-02-23T20:14:10.908Z,96723.19
2023-02-23T20:16:37.485Z,96718.53
2023-02-23T20:19:06.485Z,96718.25
2023-02-23T20:21:33.543Z,96721.59
2023-02-23T20:24:05.566Z,96725.81
2023-02-23T20:26:35.470Z,96721.28
2023-02-23T20:29:04.726Z,96719.41
2023-02-23T20:31:35.112Z,96720.84
2023-02-23T20:34:07.578Z,96721.19
2023-02-23T20:36:34.175Z,96721.31
2023-02-23T20:39:00.690Z,96723.25
2023-02-23T20:41:31.516Z,96716.72
2023-02-23T20:44:01.007Z,96714.69
2023-02-23T20:46:30.664Z,96718.59
2023-02-23T20:48:59.226Z,96717.56
2023-02-23T20:51:26.315Z,96716.53
2023-02-23T20:53:52.879Z,96720.25
2023-02-23T20:56:22.114Z,96718.00
2023-02-23T20:58:49.075Z,96715.63
2023-02-23T21:01:20.765Z,96720.28
2023-02-23T21:03:47.685Z,96724.28
2023-02-23T21:06:16.010Z,96717.75
2023-02-23T21:08:42.705Z,96713.63
2023-02-23T21:11:09.486Z,96716.50
2023-02-23T21:13:36.547Z,96713.88
2023-02-23T21:16:03.496Z,96718.84
2023-02-23T21:18:31.067Z,96721.84
2023-02-23T21:21:09.571Z,96710.75
2023-02-23T21:23:43.275Z,96719.94
2023-02-23T21:26:13.155Z,96714.72
2023-02-23T21:28:42.191Z,96718.50
2023-02-23T21:31:13.578Z,96720.75
2023-02-23T21:33:42.317Z,96710.72
2023-02-23T21:36:10.806Z,96714.66
2023-02-23T21:38:42.210Z,96711.09
2023-02-23T21:41:09.704Z,96707.72
2023-02-23T21:43:38.584Z,96711.78
2023-02-23T21:46:09.623Z,96715.88
2023-02-23T21:48:36.377Z,96709.59
2023-02-23T21:51:07.217Z,96708.25
2023-02-23T21:53:35.088Z,96706.47
2023-02-23T21:56:13.113Z,96706.41
2023-02-23T21:58:47.334Z,96708.34
2023-02-23T22:01:16.326Z,96701.59
2023-02-23T22:03:44.797Z,96695.03
2023-02-23T22:06:13.346Z,96699.00
2023-02-23T22:08:42.991Z,96701.19
2023-02-23T22:11:17.509Z,96704.41
2023-02-23T22:13:45.421Z,96697.06
2023-02-23T22:16:14.153Z,96693.97
2023-02-23T22:18:41.696Z,96698.25
2023-02-23T22:21:11.542Z,96691.91
2023-02-23T22:23:39.573Z,96693.00
2023-02-23T22:26:06.317Z,96694.84
2023-02-23T22:28:33.723Z,96696.03
2023-02-23T22:31:04.578Z,96689.28
2023-02-23T22:33:31.130Z,96688.59
2023-02-23T22:36:01.487Z,96683.38
2023-02-23T22:38:28.254Z,96689.78
2023-02-23T22:40:55.284Z,96686.56
2023-02-23T22:43:22.091Z,96686.78
2023-02-23T22:45:54.701Z,96685.44
2023-02-23T22:48:23.288Z,96680.53
2023-02-23T22:50:50.999Z,96680.84
2023-02-23T22:53:17.678Z,96675.56
2023-02-23T22:55:48.819Z,96677.94
2023-02-23T22:58:16.118Z,96683.97
2023-02-23T23:01:01.944Z,96680.53
2023-02-23T23:03:35.742Z,96682.69
2023-02-23T23:06:05.382Z,96682.91
2023-02-23T23:08:36.900Z,96683.00
2023-02-23T23:11:09.428Z,96673.56
2023-02-23T23:13:44.646Z,96674.44
2023-02-23T23:16:30.667Z,96675.56
2023-02-23T23:19:02.681Z,96684.38
2023-02-23T23:21:31.880Z,96675.03
2023-02-23T23:24:01.193Z,96677.03
2023-02-23T23:26:28.942Z,96679.72
2023-02-23T23:28:58.374Z,96675.50
2023-02-23T23:31:28.995Z,96670.00
2023-02-23T23:34:00.117Z,96659.09
2023-02-23T23:36:37.265Z,96661.44
2023-02-23T23:39:06.260Z,96666.66
2023-02-23T23:41:35.402Z,96657.09
2023-02-23T23:44:05.265Z,96647.22
2023-02-23T23:46:37.774Z,96646.94
2023-02-23T23:49:08.663Z,96646.31
2023-02-23T23:51:39.111Z,96645.69
2023-02-23T23:54:09.739Z,96642.94
2023-02-23T23:56:39.056Z,96637.72
2023-02-23T23:59:08.757Z,96630.06
